KGNV/GNV METAR and TAF weather

Enter ICAO airport designator
Station Type Date Time Source
KGNV METAR 2019/12/08 16:53 UTC NOAA

KGNV 081653Z 05011G16KT 10SM BKN021 23/16 A3024 RMK AO2 SLP238 T02280161


Station Type Date Time Source
KGNV Decoded METAR 2019/12/08 16:53 UTC NOAA

GAINESVILLE REGIONAL AIRPORT , FL, United States (KGNV) 29-42N 082-17W 45M
Dec 08, 2019 - 11:53 AM EST / 2019.12.08 1653 UTC
Wind: from the NE (050 degrees) at 13 MPH (11 KT) gusting to 18 MPH (16 KT):0
Visibility: 10 mile(s):0
Sky conditions: mostly cloudy
Temperature: 73.0 F (22.8 C)
Dew Point: 61.0 F (16.1 C)
Relative Humidity: 65%
Pressure (altimeter): 30.24 in. Hg (1024 hPa)
ob: KGNV 081653Z 05011G16KT 10SM BKN021 23/16 A3024 RMK AO2 SLP238 T02280161
cycle: 17

Station Type Date Time Source
KGNV TAF 2019/12/08 12:22 UTC NOAA

TAF KGNV 081120Z 0812/0912 04007KT P6SM BKN090
FM081800 09010KT P6SM SCT050 BKN100
FM090600 00000KT 6SM BR BKN100
FM091000 00000KT 2SM BR OVC180

Example: see airport list